Wild Peach Village, Texas
Current Conditions -  °F | °C
As of 3:53 PM on Monday 20 Oct 2014 (Local Time) from KLBX Reporting Station
Scattered Clouds Scattered Clouds  
Wind Chill: 79°   Ceiling: Unl
Heat Index: 81°   Visibility: 10mi
Dew Point: 65°   Wind: 7mph
Humidity: 62%   Direction: 80°E
Pressure: 29.98"   Gusts: NA
Location:  28.9272°N, 95.5834°W
Report Text: KLBX 202053Z AUTO 08006KT 10SM SCT037 26/18 A2998 RMK AO2 SLP150 T02610183
Loading
Personal Weather Stations






























Interactive Weather Map
Tropical Storm Tracking
New forecast layout! Learn more

10-Day Weather Forecast

Advertisements
Track Severe Weather on mobile